createdAt,value
2019-03-17T00:01:26.660Z,2.92
2019-03-17T00:03:58.330Z,2.45
2019-03-17T00:06:29.135Z,3.70
2019-03-17T00:08:59.337Z,3.30
2019-03-17T00:11:30.203Z,3.20
2019-03-17T00:14:01.398Z,3.52
2019-03-17T00:16:33.223Z,3.65
2019-03-17T00:19:04.381Z,2.50
2019-03-17T00:21:35.025Z,2.20
2019-03-17T00:24:05.765Z,2.50
2019-03-17T00:26:37.849Z,3.42
2019-03-17T00:29:08.519Z,2.45
2019-03-17T00:31:39.518Z,2.47
2019-03-17T00:34:10.566Z,2.35
2019-03-17T00:36:41.863Z,3.10
2019-03-17T00:39:12.708Z,2.60
2019-03-17T00:41:43.871Z,2.62
2019-03-17T00:44:15.191Z,1.77
2019-03-17T00:46:45.934Z,2.20
2019-03-17T00:49:16.907Z,1.80
2019-03-17T00:51:47.713Z,2.20
2019-03-17T00:54:18.130Z,2.02
2019-03-17T00:56:48.896Z,2.62
2019-03-17T00:59:20.030Z,2.10
2019-03-17T01:01:50.617Z,1.95
2019-03-17T01:04:20.723Z,1.60
2019-03-17T01:06:51.731Z,2.30
2019-03-17T01:09:22.371Z,1.75
2019-03-17T01:11:52.656Z,1.50
2019-03-17T01:14:23.420Z,1.50
2019-03-17T01:16:53.895Z,1.75
2019-03-17T01:19:24.567Z,1.50
2019-03-17T01:21:55.087Z,1.80
2019-03-17T01:24:29.121Z,1.70
2019-03-17T01:26:59.861Z,1.45
2019-03-17T01:29:30.749Z,1.80
2019-03-17T01:32:01.525Z,1.60
2019-03-17T01:34:32.468Z,1.70
2019-03-17T01:37:03.432Z,1.70
2019-03-17T01:39:34.349Z,1.70
2019-03-17T01:42:04.992Z,1.92
2019-03-17T01:44:35.954Z,1.60
2019-03-17T01:47:06.358Z,1.50
2019-03-17T01:49:36.998Z,1.20
2019-03-17T01:52:07.571Z,1.10
2019-03-17T01:54:38.691Z,1.47
2019-03-17T01:57:09.215Z,1.20
2019-03-17T01:59:40.722Z,1.10
2019-03-17T02:02:11.778Z,1.72
2019-03-17T02:04:43.064Z,1.35
2019-03-17T02:07:14.664Z,1.27
2019-03-17T02:09:45.427Z,1.20
2019-03-17T02:12:16.366Z,1.40
2019-03-17T02:14:47.921Z,1.47
2019-03-17T02:17:19.566Z,1.12
2019-03-17T02:19:50.169Z,0.90
2019-03-17T02:22:22.267Z,1.20
2019-03-17T02:24:52.685Z,1.30
2019-03-17T02:27:23.061Z,1.20
2019-03-17T02:29:53.895Z,1.17
2019-03-17T02:32:24.524Z,1.10
2019-03-17T02:34:54.959Z,1.30
2019-03-17T02:37:25.523Z,1.20
2019-03-17T02:39:55.991Z,1.05
2019-03-17T02:42:26.585Z,0.90
2019-03-17T02:44:56.971Z,1.00
2019-03-17T02:47:28.111Z,1.10
2019-03-17T02:49:58.708Z,1.00
2019-03-17T02:52:29.240Z,1.00
2019-03-17T02:54:59.804Z,0.90
2019-03-17T02:57:30.616Z,0.80
2019-03-17T03:00:01.185Z,0.90
2019-03-17T03:02:32.092Z,1.10
2019-03-17T03:05:05.142Z,0.90
2019-03-17T03:07:35.742Z,0.95
2019-03-17T03:10:06.705Z,1.00
2019-03-17T03:12:38.456Z,1.10
2019-03-17T03:15:09.420Z,1.00
2019-03-17T03:17:41.090Z,0.90
2019-03-17T03:20:12.739Z,0.90
2019-03-17T03:22:43.740Z,0.98
2019-03-17T03:25:15.286Z,0.98
2019-03-17T03:27:46.330Z,1.10
2019-03-17T03:30:18.139Z,1.07
2019-03-17T03:32:48.922Z,0.93
2019-03-17T03:35:20.053Z,0.80
2019-03-17T03:37:50.770Z,0.70
2019-03-17T03:40:21.201Z,0.85
2019-03-17T03:42:51.715Z,0.90
2019-03-17T03:45:22.669Z,0.75
2019-03-17T03:47:53.292Z,1.00
2019-03-17T03:50:23.967Z,1.00
2019-03-17T03:52:54.442Z,1.50
2019-03-17T03:55:25.046Z,1.22
2019-03-17T03:57:55.537Z,1.90
2019-03-17T04:00:25.969Z,2.00
2019-03-17T04:02:56.375Z,1.87
2019-03-17T04:05:27.094Z,1.20
2019-03-17T04:07:57.121Z,1.30
2019-03-17T04:10:27.822Z,1.20
2019-03-17T04:12:58.391Z,1.50
2019-03-17T04:15:29.070Z,2.12
2019-03-17T04:17:59.474Z,1.80
2019-03-17T04:20:30.345Z,1.77
2019-03-17T04:23:01.074Z,1.70
2019-03-17T04:25:31.679Z,3.20
2019-03-17T04:28:02.717Z,3.65
2019-03-17T04:30:34.155Z,3.55
2019-03-17T04:33:04.677Z,2.80
2019-03-17T04:35:35.365Z,1.82
2019-03-17T04:38:05.848Z,1.77
2019-03-17T04:40:36.751Z,2.20
2019-03-17T04:43:07.342Z,2.20
2019-03-17T04:45:38.227Z,1.82
2019-03-17T04:48:08.975Z,1.92
2019-03-17T04:50:39.883Z,2.33
2019-03-17T04:53:11.143Z,2.22
2019-03-17T04:55:42.329Z,2.35
2019-03-17T04:58:13.606Z,2.10
2019-03-17T05:00:44.631Z,2.47
2019-03-17T05:03:15.878Z,2.05
2019-03-17T05:05:46.569Z,2.05
2019-03-17T05:08:18.051Z,2.60
2019-03-17T05:10:48.538Z,2.10
2019-03-17T05:13:19.541Z,2.40
2019-03-17T05:15:50.112Z,2.42
2019-03-17T05:18:20.877Z,2.25
2019-03-17T05:20:51.496Z,2.20
2019-03-17T05:23:21.681Z,2.35
2019-03-17T05:25:52.246Z,2.62
2019-03-17T05:28:23.254Z,2.22
2019-03-17T05:30:53.736Z,1.90
2019-03-17T05:33:24.634Z,1.80
2019-03-17T05:35:55.074Z,1.90
2019-03-17T05:38:25.760Z,1.35
2019-03-17T05:40:56.713Z,1.40
2019-03-17T05:43:27.514Z,1.50
2019-03-17T05:45:58.047Z,1.30
2019-03-17T05:48:28.880Z,1.25
2019-03-17T05:51:01.257Z,1.50
2019-03-17T05:53:32.046Z,1.32
2019-03-17T05:56:02.885Z,1.25
2019-03-17T05:58:33.797Z,1.45
2019-03-17T06:01:04.418Z,1.10
2019-03-17T06:03:35.213Z,1.10
2019-03-17T06:06:06.123Z,1.20
2019-03-17T06:08:36.667Z,1.27
2019-03-17T06:11:07.845Z,1.55
2019-03-17T06:13:39.591Z,1.65
2019-03-17T06:16:13.484Z,1.20
2019-03-17T06:18:44.768Z,1.42
2019-03-17T06:21:15.633Z,1.30
2019-03-17T06:23:46.342Z,1.60
2019-03-17T06:26:17.866Z,1.77
2019-03-17T06:28:49.577Z,1.10
2019-03-17T06:31:20.584Z,1.47
2019-03-17T06:33:51.190Z,2.27
2019-03-17T06:36:21.658Z,2.60
2019-03-17T06:38:52.058Z,2.40
2019-03-17T06:41:22.580Z,2.95
2019-03-17T06:43:53.028Z,1.98
2019-03-17T06:46:23.549Z,2.22
2019-03-17T06:48:54.388Z,2.05
2019-03-17T06:51:25.561Z,1.82
2019-03-17T06:53:56.871Z,2.15
2019-03-17T06:56:27.434Z,2.08
2019-03-17T06:58:57.883Z,2.65
2019-03-17T07:01:28.247Z,1.80
2019-03-17T07:03:58.504Z,1.80
2019-03-17T07:06:29.884Z,3.12
2019-03-17T07:09:00.326Z,1.90
2019-03-17T07:11:30.941Z,3.55
2019-03-17T07:14:01.572Z,2.45
2019-03-17T07:16:32.849Z,1.80
2019-03-17T07:19:03.297Z,2.27
2019-03-17T07:21:34.074Z,2.30
2019-03-17T07:24:04.581Z,2.40
2019-03-17T07:26:35.019Z,2.50
2019-03-17T07:29:05.638Z,1.67
2019-03-17T07:31:36.307Z,2.77
2019-03-17T07:34:07.236Z,2.08
2019-03-17T07:36:37.536Z,1.80
2019-03-17T07:39:11.971Z,3.00
2019-03-17T07:41:42.114Z,2.27
2019-03-17T07:44:13.427Z,2.45
2019-03-17T07:46:44.382Z,2.50
2019-03-17T07:49:15.469Z,2.10
2019-03-17T07:51:45.991Z,1.55
2019-03-17T07:54:16.799Z,1.40
2019-03-17T07:56:48.297Z,1.50
2019-03-17T07:59:19.193Z,1.22
2019-03-17T08:01:49.813Z,1.60
2019-03-17T08:04:20.394Z,1.10
2019-03-17T08:06:51.016Z,1.10
2019-03-17T08:09:21.785Z,1.10
2019-03-17T08:11:52.213Z,1.32
2019-03-17T08:14:22.968Z,1.37
2019-03-17T08:16:53.797Z,1.35
2019-03-17T08:19:24.790Z,1.10
2019-03-17T08:21:55.452Z,1.30
2019-03-17T08:24:26.400Z,1.27
2019-03-17T08:26:58.138Z,1.20
2019-03-17T08:29:30.272Z,1.60
2019-03-17T08:32:01.202Z,1.23
2019-03-17T08:34:32.096Z,1.27
2019-03-17T08:37:02.488Z,0.93
2019-03-17T08:39:34.128Z,1.20
2019-03-17T08:42:04.559Z,1.30
2019-03-17T08:44:35.249Z,1.40
2019-03-17T08:47:05.896Z,1.40
2019-03-17T08:49:36.289Z,1.43
2019-03-17T08:52:06.956Z,1.60
2019-03-17T08:54:37.554Z,1.63
2019-03-17T08:57:07.952Z,1.10
2019-03-17T08:59:38.659Z,1.20
2019-03-17T09:02:08.901Z,1.47
2019-03-17T09:04:39.317Z,1.60
2019-03-17T09:07:09.822Z,1.37
2019-03-17T09:09:40.262Z,1.30
2019-03-17T09:12:09.485Z,1.30
2019-03-17T09:14:38.659Z,1.80
2019-03-17T09:17:14.303Z,1.17
2019-03-17T09:19:38.877Z,1.27
2019-03-17T09:22:08.195Z,1.20
2019-03-17T09:24:37.379Z,1.20
2019-03-17T09:27:06.628Z,1.17
2019-03-17T09:29:36.011Z,1.30
2019-03-17T09:32:05.219Z,0.90
2019-03-17T09:34:34.374Z,1.10
2019-03-17T09:37:03.543Z,1.23
2019-03-17T09:39:32.699Z,1.50
2019-03-17T09:42:01.893Z,1.20
2019-03-17T09:44:31.281Z,1.80
2019-03-17T09:47:00.624Z,1.40
2019-03-17T09:49:30.048Z,1.47
2019-03-17T09:51:59.304Z,1.23
2019-03-17T09:54:29.339Z,1.73
2019-03-17T09:56:58.748Z,1.27
2019-03-17T09:59:28.478Z,1.37
2019-03-17T10:01:57.828Z,1.53
2019-03-17T10:04:27.165Z,1.30
2019-03-17T10:06:57.356Z,1.70
2019-03-17T10:09:27.141Z,1.13
2019-03-17T10:11:56.576Z,1.20
2019-03-17T10:14:26.070Z,1.50
2019-03-17T10:16:55.929Z,1.80
2019-03-17T10:19:25.593Z,1.13
2019-03-17T10:21:55.479Z,2.23
2019-03-17T10:24:25.172Z,1.53
2019-03-17T10:26:55.022Z,1.67
2019-03-17T10:29:24.810Z,1.30
2019-03-17T10:31:54.213Z,1.30
2019-03-17T10:34:23.573Z,1.60
2019-03-17T10:36:53.645Z,1.40
2019-03-17T10:39:23.028Z,1.43
2019-03-17T10:41:52.426Z,1.13
2019-03-17T10:44:22.320Z,1.13
2019-03-17T10:46:51.671Z,2.33
2019-03-17T10:49:21.046Z,1.50
2019-03-17T10:51:50.196Z,1.80
2019-03-17T10:54:19.539Z,1.33
2019-03-17T10:56:48.689Z,1.40
2019-03-17T10:59:17.962Z,1.10
2019-03-17T11:01:47.198Z,1.70
2019-03-17T11:04:16.449Z,1.60
2019-03-17T11:06:45.671Z,1.30
2019-03-17T11:09:24.781Z,1.50
2019-03-17T11:11:46.485Z,1.40
2019-03-17T11:14:15.912Z,1.40
2019-03-17T11:16:45.340Z,1.30
2019-03-17T11:19:14.787Z,1.40
2019-03-17T11:21:44.125Z,1.60
2019-03-17T11:24:13.717Z,1.20
2019-03-17T11:26:42.926Z,1.57
2019-03-17T11:29:12.129Z,1.37
2019-03-17T11:31:41.297Z,1.50
2019-03-17T11:34:10.443Z,1.47
2019-03-17T11:36:39.700Z,2.67
2019-03-17T11:39:13.147Z,1.10
2019-03-17T11:41:43.833Z,1.23
2019-03-17T11:44:14.348Z,1.60
2019-03-17T11:46:44.795Z,2.23
2019-03-17T11:49:15.612Z,1.10
2019-03-17T11:51:46.353Z,1.10
2019-03-17T11:54:16.760Z,1.40
2019-03-17T11:56:47.098Z,1.63
2019-03-17T11:59:17.632Z,2.13
2019-03-17T12:01:48.034Z,1.30
2019-03-17T12:04:19.354Z,1.40
2019-03-17T12:06:49.843Z,1.70
2019-03-17T12:09:28.896Z,1.73
2019-03-17T12:11:54.906Z,1.83
2019-03-17T12:14:26.478Z,1.87
2019-03-17T12:16:56.949Z,3.77
2019-03-17T12:19:27.895Z,1.50
2019-03-17T12:22:08.409Z,1.47
2019-03-17T12:24:30.740Z,1.70
2019-03-17T12:27:01.591Z,1.70
2019-03-17T12:29:32.442Z,1.37
2019-03-17T12:32:03.107Z,1.87
2019-03-17T12:34:34.238Z,1.90
2019-03-17T12:37:04.863Z,1.10
2019-03-17T12:39:37.701Z,1.20
2019-03-17T12:42:08.535Z,1.80
2019-03-17T12:44:39.896Z,0.90
2019-03-17T12:47:10.340Z,1.00
2019-03-17T12:49:41.122Z,1.27
2019-03-17T12:52:11.720Z,1.07
2019-03-17T12:54:41.810Z,1.40
2019-03-17T12:57:12.292Z,1.43
2019-03-17T12:59:42.790Z,1.20
2019-03-17T13:02:13.381Z,1.03
2019-03-17T13:04:43.562Z,1.10
2019-03-17T13:07:14.793Z,1.17
2019-03-17T13:09:45.261Z,0.80
2019-03-17T13:12:16.656Z,0.90
2019-03-17T13:14:47.299Z,0.70
2019-03-17T13:17:18.032Z,0.80
2019-03-17T13:19:48.448Z,0.80
2019-03-17T13:22:19.056Z,0.65
2019-03-17T13:24:50.687Z,0.70
2019-03-17T13:27:21.677Z,0.70
2019-03-17T13:29:51.989Z,0.70
2019-03-17T13:32:22.857Z,0.88
2019-03-17T13:34:55.047Z,1.00
2019-03-17T13:37:25.611Z,0.72
2019-03-17T13:39:56.110Z,0.80
2019-03-17T13:42:26.812Z,0.80
2019-03-17T13:44:57.242Z,0.75
2019-03-17T13:47:27.739Z,0.60
2019-03-17T13:49:58.480Z,0.72
2019-03-17T13:52:29.954Z,1.10
2019-03-17T13:55:00.990Z,1.22
2019-03-17T13:57:31.918Z,0.80
2019-03-17T14:00:02.564Z,1.37
2019-03-17T14:02:33.281Z,1.00
2019-03-17T14:05:03.778Z,0.80
2019-03-17T14:07:35.536Z,0.62
2019-03-17T14:10:13.872Z,1.27
2019-03-17T14:12:39.612Z,0.98
2019-03-17T14:15:12.317Z,0.60
2019-03-17T14:17:43.199Z,0.70
2019-03-17T14:20:15.691Z,1.15
2019-03-17T14:22:46.383Z,1.05
2019-03-17T14:25:22.575Z,0.70
2019-03-17T14:27:53.545Z,1.00
2019-03-17T14:30:24.121Z,0.70
2019-03-17T14:32:54.975Z,0.70
2019-03-17T14:35:25.690Z,0.80
2019-03-17T14:37:56.064Z,0.80
2019-03-17T14:40:26.700Z,0.75
2019-03-17T14:42:57.317Z,0.90
2019-03-17T14:45:27.672Z,0.80
2019-03-17T14:47:58.274Z,0.90
2019-03-17T14:50:29.054Z,0.90
2019-03-17T14:53:00.788Z,0.70
2019-03-17T14:55:31.899Z,0.70
2019-03-17T14:58:02.550Z,0.75
2019-03-17T15:00:32.879Z,0.90
2019-03-17T15:03:04.221Z,0.80
2019-03-17T15:05:34.771Z,0.70
2019-03-17T15:08:05.443Z,0.68
2019-03-17T15:10:36.194Z,0.80
2019-03-17T15:13:06.687Z,0.80
2019-03-17T15:15:37.313Z,0.70
2019-03-17T15:18:07.776Z,0.60
2019-03-17T15:20:38.440Z,0.90
2019-03-17T15:23:08.868Z,0.90
2019-03-17T15:25:39.642Z,1.10
2019-03-17T15:28:10.285Z,1.10
2019-03-17T15:30:42.065Z,0.98
2019-03-17T15:33:12.278Z,2.27
2019-03-17T15:35:43.164Z,1.30
2019-03-17T15:38:13.647Z,1.30
2019-03-17T15:40:44.231Z,1.00
2019-03-17T15:43:15.072Z,1.00
2019-03-17T15:45:45.602Z,1.07
2019-03-17T15:48:16.160Z,1.45
2019-03-17T15:50:47.086Z,1.05
2019-03-17T15:53:17.527Z,1.20
2019-03-17T15:55:47.962Z,1.35
2019-03-17T15:58:18.612Z,2.50
2019-03-17T16:00:49.163Z,1.52
2019-03-17T16:03:19.928Z,2.33
2019-03-17T16:05:50.435Z,1.40
2019-03-17T16:08:21.150Z,1.32
2019-03-17T16:10:51.562Z,1.22
2019-03-17T16:13:21.495Z,1.60
2019-03-17T16:15:51.918Z,1.27
2019-03-17T16:18:22.462Z,1.30
2019-03-17T16:20:52.868Z,1.00
2019-03-17T16:23:23.527Z,1.20
2019-03-17T16:25:54.044Z,2.17
2019-03-17T16:28:25.069Z,2.60
2019-03-17T16:30:58.415Z,2.12
2019-03-17T16:33:29.302Z,1.22
2019-03-17T16:36:00.181Z,2.98
2019-03-17T16:38:32.236Z,2.05
2019-03-17T16:41:02.933Z,2.52
2019-03-17T16:43:34.113Z,1.40
2019-03-17T16:46:05.038Z,1.47
2019-03-17T16:48:36.349Z,1.60
2019-03-17T16:51:06.902Z,1.70
2019-03-17T16:53:37.710Z,1.70
2019-03-17T16:56:07.928Z,1.52
2019-03-17T16:58:39.161Z,1.72
2019-03-17T17:01:09.794Z,3.90
2019-03-17T17:03:43.092Z,1.42
2019-03-17T17:06:13.670Z,1.80
2019-03-17T17:08:44.462Z,2.52
2019-03-17T17:11:16.035Z,1.65
2019-03-17T17:13:47.071Z,1.80
2019-03-17T17:16:17.663Z,2.20
2019-03-17T17:18:48.159Z,2.08
2019-03-17T17:21:18.911Z,1.40
2019-03-17T17:23:49.367Z,1.65
2019-03-17T17:26:20.105Z,1.02
2019-03-17T17:28:50.534Z,1.00
2019-03-17T17:31:21.008Z,0.72
2019-03-17T17:33:51.443Z,1.00
2019-03-17T17:36:21.867Z,1.50
2019-03-17T17:38:52.422Z,2.40
2019-03-17T17:41:23.646Z,2.30
2019-03-17T17:43:53.979Z,1.55
2019-03-17T17:46:25.045Z,2.30
2019-03-17T17:48:55.498Z,2.00
2019-03-17T17:51:26.923Z,1.67
2019-03-17T17:53:57.462Z,1.50
2019-03-17T17:56:28.338Z,1.40
2019-03-17T17:58:59.138Z,1.20
2019-03-17T18:01:29.674Z,1.47
2019-03-17T18:04:00.278Z,1.17
2019-03-17T18:06:31.068Z,2.30
2019-03-17T18:09:01.968Z,1.15
2019-03-17T18:11:32.887Z,1.65
2019-03-17T18:14:03.357Z,1.20
2019-03-17T18:16:35.059Z,1.07
2019-03-17T18:19:05.686Z,1.02
2019-03-17T18:21:36.664Z,1.20
2019-03-17T18:24:07.411Z,1.30
2019-03-17T18:26:38.204Z,1.00
2019-03-17T18:29:09.022Z,1.20
2019-03-17T18:31:39.895Z,1.90
2019-03-17T18:34:11.027Z,1.72
2019-03-17T18:36:41.776Z,1.37
2019-03-17T18:39:12.309Z,1.27
2019-03-17T18:41:42.214Z,1.00
2019-03-17T18:44:13.640Z,0.90
2019-03-17T18:46:44.323Z,0.95
2019-03-17T18:49:15.137Z,1.20
2019-03-17T18:51:45.352Z,1.05
2019-03-17T18:54:15.973Z,1.55
2019-03-17T18:56:46.697Z,1.50
2019-03-17T18:59:18.032Z,1.60
2019-03-17T19:01:48.988Z,2.95
2019-03-17T19:04:19.852Z,1.27
2019-03-17T19:06:50.407Z,1.20
2019-03-17T19:09:20.784Z,2.05
2019-03-17T19:11:52.059Z,10.00
2019-03-17T19:14:22.700Z,4.75
2019-03-17T19:16:53.261Z,2.15
2019-03-17T19:19:23.794Z,1.40
2019-03-17T19:21:54.198Z,1.50
2019-03-17T19:24:24.986Z,2.10
2019-03-17T19:26:55.621Z,1.27
2019-03-17T19:29:26.018Z,1.30
2019-03-17T19:31:56.083Z,1.40
2019-03-17T19:34:26.574Z,1.25
2019-03-17T19:36:57.093Z,1.32
2019-03-17T19:39:27.931Z,1.20
2019-03-17T19:41:58.771Z,1.40
2019-03-17T19:44:29.393Z,1.90
2019-03-17T19:47:00.253Z,1.67
2019-03-17T19:49:31.097Z,1.70
2019-03-17T19:52:02.582Z,1.20
2019-03-17T19:54:33.547Z,1.10
2019-03-17T19:57:05.435Z,1.30
2019-03-17T19:59:37.318Z,1.00
2019-03-17T20:02:08.947Z,1.50
2019-03-17T20:04:40.271Z,1.25
2019-03-17T20:07:11.412Z,1.30
2019-03-17T20:09:41.857Z,1.20
2019-03-17T20:12:12.617Z,1.35
2019-03-17T20:14:43.609Z,1.80
2019-03-17T20:17:14.576Z,1.25
2019-03-17T20:19:44.900Z,1.00
2019-03-17T20:22:15.682Z,1.32
2019-03-17T20:24:46.625Z,1.40
2019-03-17T20:27:17.635Z,1.30
2019-03-17T20:29:48.043Z,1.30
2019-03-17T20:32:18.672Z,2.35
2019-03-17T20:34:49.170Z,1.15
2019-03-17T20:37:19.756Z,1.02
2019-03-17T20:39:50.260Z,0.90
2019-03-17T20:42:20.789Z,1.10
2019-03-17T20:44:51.543Z,1.20
2019-03-17T20:47:21.794Z,0.80
2019-03-17T20:49:52.507Z,1.05
2019-03-17T20:52:23.250Z,0.90
2019-03-17T20:54:54.858Z,0.90
2019-03-17T20:57:25.484Z,0.82
2019-03-17T20:59:56.382Z,0.85
2019-03-17T21:02:28.109Z,1.05
2019-03-17T21:04:58.901Z,0.80
2019-03-17T21:07:29.292Z,0.80
2019-03-17T21:10:00.385Z,0.90
2019-03-17T21:12:31.384Z,1.10
2019-03-17T21:15:03.352Z,0.80
2019-03-17T21:17:35.675Z,0.85
2019-03-17T21:20:08.603Z,0.72
2019-03-17T21:22:39.869Z,1.50
2019-03-17T21:25:11.615Z,1.20
2019-03-17T21:27:42.892Z,1.00
2019-03-17T21:30:19.292Z,1.10
2019-03-17T21:32:49.416Z,0.90
2019-03-17T21:35:20.132Z,0.85
2019-03-17T21:37:50.532Z,0.80
2019-03-17T21:40:21.610Z,0.80
2019-03-17T21:42:52.298Z,1.10
2019-03-17T21:45:27.195Z,0.70
2019-03-17T21:47:57.063Z,1.02
2019-03-17T21:50:28.870Z,0.93
2019-03-17T21:52:59.350Z,0.68
2019-03-17T21:55:32.114Z,0.75
2019-03-17T21:58:08.032Z,0.90
2019-03-17T22:02:58.027Z,1.05
2019-03-17T22:05:30.334Z,0.90
2019-03-17T22:08:01.184Z,1.17
2019-03-17T22:10:32.604Z,1.20
2019-03-17T22:13:04.390Z,1.50
2019-03-17T22:15:35.799Z,0.90
2019-03-17T22:18:05.662Z,1.32
2019-03-17T22:20:36.938Z,0.90
2019-03-17T22:23:08.785Z,1.10
2019-03-17T22:25:40.281Z,0.93
2019-03-17T22:28:10.763Z,1.00
2019-03-17T22:30:39.954Z,1.00
2019-03-17T22:33:09.875Z,1.10
2019-03-17T22:35:40.482Z,1.30
2019-03-17T22:38:10.907Z,1.07
2019-03-17T22:40:40.510Z,2.77
2019-03-17T22:43:11.051Z,0.85
2019-03-17T22:45:41.275Z,0.70
2019-03-17T22:48:11.080Z,0.80
2019-03-17T22:50:40.636Z,1.10
2019-03-17T22:53:10.561Z,0.90
2019-03-17T22:55:40.489Z,1.00
2019-03-17T22:58:11.565Z,0.82
2019-03-17T23:00:43.286Z,0.90
2019-03-17T23:03:13.514Z,1.00
2019-03-17T23:05:43.415Z,0.90
2019-03-17T23:08:13.896Z,0.90
2019-03-17T23:10:45.775Z,0.80
2019-03-17T23:13:15.110Z,0.90
2019-03-17T23:15:45.467Z,0.72
2019-03-17T23:18:14.663Z,1.10
2019-03-17T23:20:45.526Z,0.80
2019-03-17T23:23:15.045Z,1.00
2019-03-17T23:25:44.631Z,0.90
2019-03-17T23:28:14.723Z,0.80
2019-03-17T23:30:44.930Z,1.00
2019-03-17T23:33:14.218Z,1.05
2019-03-17T23:35:43.363Z,1.17
2019-03-17T23:38:13.810Z,0.80
2019-03-17T23:40:44.355Z,1.00
2019-03-17T23:43:13.521Z,1.00
2019-03-17T23:45:43.081Z,0.95
2019-03-17T23:48:13.576Z,0.80
2019-03-17T23:50:43.008Z,0.82
2019-03-17T23:53:12.560Z,0.82
2019-03-17T23:55:42.532Z,0.90
2019-03-17T23:58:12.653Z,0.70
